sensor_id;sensor_type;location;lat;lon;timestamp;temperature;humidity
55064;DHT22;40963;52.168;21.296;2023-03-04T00:01:15;0.70;99.90
55064;DHT22;40963;52.168;21.296;2023-03-04T00:03:41;0.70;99.90
55064;DHT22;40963;52.168;21.296;2023-03-04T00:06:07;0.80;99.90
55064;DHT22;40963;52.168;21.296;2023-03-04T00:08:33;0.70;99.90
55064;DHT22;40963;52.168;21.296;2023-03-04T00:10:59;0.80;99.90
55064;DHT22;40963;52.168;21.296;2023-03-04T00:13:25;0.80;99.90
55064;DHT22;40963;52.168;21.296;2023-03-04T00:15:51;0.70;99.90
55064;DHT22;40963;52.168;21.296;2023-03-04T00:18:17;0.80;99.90
55064;DHT22;40963;52.168;21.296;2023-03-04T00:20:42;0.80;99.90
55064;DHT22;40963;52.168;21.296;2023-03-04T00:23:08;0.80;99.90
55064;DHT22;40963;52.168;21.296;2023-03-04T00:25:34;0.80;99.90
55064;DHT22;40963;52.168;21.296;2023-03-04T00:27:59;0.80;99.90
55064;DHT22;40963;52.168;21.296;2023-03-04T00:30:25;0.80;99.90
55064;DHT22;40963;52.168;21.296;2023-03-04T00:32:51;0.80;99.90
55064;DHT22;40963;52.168;21.296;2023-03-04T00:35:17;0.80;99.90
55064;DHT22;40963;52.168;21.296;2023-03-04T00:37:43;0.80;99.90
55064;DHT22;40963;52.168;21.296;2023-03-04T00:40:09;0.80;99.90
55064;DHT22;40963;52.168;21.296;2023-03-04T00:42:35;0.80;99.90
55064;DHT22;40963;52.168;21.296;2023-03-04T00:45:01;0.80;99.90
55064;DHT22;40963;52.168;21.296;2023-03-04T00:47:27;0.80;99.90
55064;DHT22;40963;52.168;21.296;2023-03-04T00:49:52;0.80;99.90
55064;DHT22;40963;52.168;21.296;2023-03-04T00:52:18;0.90;99.90
55064;DHT22;40963;52.168;21.296;2023-03-04T00:54:43;0.90;99.90
55064;DHT22;40963;52.168;21.296;2023-03-04T00:57:09;0.90;99.90
55064;DHT22;40963;52.168;21.296;2023-03-04T00:59:35;0.90;99.90
55064;DHT22;40963;52.168;21.296;2023-03-04T01:02:01;0.90;99.90
55064;DHT22;40963;52.168;21.296;2023-03-04T01:04:26;0.90;99.90
55064;DHT22;40963;52.168;21.296;2023-03-04T01:06:52;0.90;99.90
55064;DHT22;40963;52.168;21.296;2023-03-04T01:09:18;0.90;99.90
55064;DHT22;40963;52.168;21.296;2023-03-04T01:11:43;0.90;99.90
55064;DHT22;40963;52.168;21.296;2023-03-04T01:14:09;0.90;99.90
55064;DHT22;40963;52.168;21.296;2023-03-04T01:16:35;0.90;99.90
55064;DHT22;40963;52.168;21.296;2023-03-04T01:19:01;0.90;99.90
55064;DHT22;40963;52.168;21.296;2023-03-04T01:21:26;0.90;99.90
55064;DHT22;40963;52.168;21.296;2023-03-04T01:23:52;1.00;99.90
55064;DHT22;40963;52.168;21.296;2023-03-04T01:26:18;0.90;99.90
55064;DHT22;40963;52.168;21.296;2023-03-04T01:28:43;0.90;99.90
55064;DHT22;40963;52.168;21.296;2023-03-04T01:31:09;0.90;99.90
55064;DHT22;40963;52.168;21.296;2023-03-04T01:33:35;0.90;99.90
55064;DHT22;40963;52.168;21.296;2023-03-04T01:36:00;0.90;99.90
55064;DHT22;40963;52.168;21.296;2023-03-04T01:38:26;0.90;99.90
55064;DHT22;40963;52.168;21.296;2023-03-04T01:40:52;0.90;99.90
55064;DHT22;40963;52.168;21.296;2023-03-04T01:43:22;0.90;99.90
55064;DHT22;40963;52.168;21.296;2023-03-04T01:45:49;0.90;99.90
55064;DHT22;40963;52.168;21.296;2023-03-04T01:48:19;0.90;99.90
55064;DHT22;40963;52.168;21.296;2023-03-04T01:50:46;0.90;99.90
55064;DHT22;40963;52.168;21.296;2023-03-04T01:53:24;0.90;99.90
55064;DHT22;40963;52.168;21.296;2023-03-04T01:55:53;0.90;99.90
55064;DHT22;40963;52.168;21.296;2023-03-04T01:58:19;0.90;99.90
55064;DHT22;40963;52.168;21.296;2023-03-04T02:00:45;0.90;99.90
55064;DHT22;40963;52.168;21.296;2023-03-04T02:03:14;0.90;99.90
55064;DHT22;40963;52.168;21.296;2023-03-04T02:05:43;0.90;99.90
55064;DHT22;40963;52.168;21.296;2023-03-04T02:08:10;0.90;99.90
55064;DHT22;40963;52.168;21.296;2023-03-04T02:10:37;0.90;99.90
55064;DHT22;40963;52.168;21.296;2023-03-04T02:13:03;0.80;99.90
55064;DHT22;40963;52.168;21.296;2023-03-04T02:15:29;0.80;99.90
55064;DHT22;40963;52.168;21.296;2023-03-04T02:17:55;0.80;99.90
55064;DHT22;40963;52.168;21.296;2023-03-04T02:20:27;0.80;99.90
55064;DHT22;40963;52.168;21.296;2023-03-04T02:23:16;0.80;99.90
55064;DHT22;40963;52.168;21.296;2023-03-04T02:26:08;0.80;99.90
55064;DHT22;40963;52.168;21.296;2023-03-04T02:28:33;0.80;99.90
55064;DHT22;40963;52.168;21.296;2023-03-04T02:30:59;0.80;99.90
55064;DHT22;40963;52.168;21.296;2023-03-04T02:33:25;0.80;99.90
55064;DHT22;40963;52.168;21.296;2023-03-04T02:35:51;0.80;99.90
55064;DHT22;40963;52.168;21.296;2023-03-04T02:38:16;0.80;99.90
55064;DHT22;40963;52.168;21.296;2023-03-04T02:40:45;0.80;99.90
55064;DHT22;40963;52.168;21.296;2023-03-04T02:43:12;0.80;99.90
55064;DHT22;40963;52.168;21.296;2023-03-04T02:45:44;0.80;99.90
55064;DHT22;40963;52.168;21.296;2023-03-04T02:48:11;0.80;99.90
55064;DHT22;40963;52.168;21.296;2023-03-04T02:50:44;0.80;99.90
55064;DHT22;40963;52.168;21.296;2023-03-04T02:53:11;0.90;99.90
55064;DHT22;40963;52.168;21.296;2023-03-04T02:55:36;0.90;99.90
55064;DHT22;40963;52.168;21.296;2023-03-04T02:58:02;0.90;99.90
55064;DHT22;40963;52.168;21.296;2023-03-04T03:00:28;1.00;99.90
55064;DHT22;40963;52.168;21.296;2023-03-04T03:02:54;0.90;99.90
55064;DHT22;40963;52.168;21.296;2023-03-04T03:05:22;1.00;99.90
55064;DHT22;40963;52.168;21.296;2023-03-04T03:07:48;1.00;99.90
55064;DHT22;40963;52.168;21.296;2023-03-04T03:10:14;1.00;99.90
55064;DHT22;40963;52.168;21.296;2023-03-04T03:12:40;1.00;99.90
55064;DHT22;40963;52.168;21.296;2023-03-04T03:15:06;1.00;99.90
55064;DHT22;40963;52.168;21.296;2023-03-04T03:17:32;1.00;99.90
55064;DHT22;40963;52.168;21.296;2023-03-04T03:19:58;1.10;99.90
55064;DHT22;40963;52.168;21.296;2023-03-04T03:22:24;1.10;99.90
55064;DHT22;40963;52.168;21.296;2023-03-04T03:24:49;1.10;99.90
55064;DHT22;40963;52.168;21.296;2023-03-04T03:27:15;1.10;99.90
55064;DHT22;40963;52.168;21.296;2023-03-04T03:29:41;1.20;99.90
55064;DHT22;40963;52.168;21.296;2023-03-04T03:32:06;1.20;99.90
55064;DHT22;40963;52.168;21.296;2023-03-04T03:34:33;1.20;99.90
55064;DHT22;40963;52.168;21.296;2023-03-04T03:36:59;1.20;99.90
55064;DHT22;40963;52.168;21.296;2023-03-04T03:39:24;1.30;99.90
55064;DHT22;40963;52.168;21.296;2023-03-04T03:41:50;1.30;99.90
55064;DHT22;40963;52.168;21.296;2023-03-04T03:44:16;1.30;99.90
55064;DHT22;40963;52.168;21.296;2023-03-04T03:46:42;1.30;99.90
55064;DHT22;40963;52.168;21.296;2023-03-04T03:49:07;1.30;99.90
55064;DHT22;40963;52.168;21.296;2023-03-04T03:51:33;1.30;99.90
55064;DHT22;40963;52.168;21.296;2023-03-04T03:53:59;1.30;99.90
55064;DHT22;40963;52.168;21.296;2023-03-04T03:56:25;1.40;99.90
55064;DHT22;40963;52.168;21.296;2023-03-04T03:58:50;1.40;99.90
55064;DHT22;40963;52.168;21.296;2023-03-04T04:01:16;1.40;99.90
55064;DHT22;40963;52.168;21.296;2023-03-04T04:03:42;1.40;99.90
55064;DHT22;40963;52.168;21.296;2023-03-04T04:06:07;1.40;99.90
55064;DHT22;40963;52.168;21.296;2023-03-04T04:08:33;1.40;99.90
55064;DHT22;40963;52.168;21.296;2023-03-04T04:10:59;1.40;99.90
55064;DHT22;40963;52.168;21.296;2023-03-04T04:13:24;1.40;99.90
55064;DHT22;40963;52.168;21.296;2023-03-04T04:15:51;1.40;99.90
55064;DHT22;40963;52.168;21.296;2023-03-04T04:18:17;1.50;99.90
55064;DHT22;40963;52.168;21.296;2023-03-04T04:20:42;1.50;99.90
55064;DHT22;40963;52.168;21.296;2023-03-04T04:23:08;1.50;99.90
55064;DHT22;40963;52.168;21.296;2023-03-04T04:25:34;1.50;99.90
55064;DHT22;40963;52.168;21.296;2023-03-04T04:28:00;1.50;99.90
55064;DHT22;40963;52.168;21.296;2023-03-04T04:30:25;1.50;99.90
55064;DHT22;40963;52.168;21.296;2023-03-04T04:32:51;1.50;99.90
55064;DHT22;40963;52.168;21.296;2023-03-04T04:35:17;1.50;99.90
55064;DHT22;40963;52.168;21.296;2023-03-04T04:37:42;1.60;99.90
55064;DHT22;40963;52.168;21.296;2023-03-04T04:40:09;1.60;99.90
55064;DHT22;40963;52.168;21.296;2023-03-04T04:42:35;1.60;99.90
55064;DHT22;40963;52.168;21.296;2023-03-04T04:45:00;1.60;99.90
55064;DHT22;40963;52.168;21.296;2023-03-04T04:47:26;1.70;99.90
55064;DHT22;40963;52.168;21.296;2023-03-04T04:49:52;1.70;99.90
55064;DHT22;40963;52.168;21.296;2023-03-04T04:52:18;1.60;99.90
55064;DHT22;40963;52.168;21.296;2023-03-04T04:54:43;1.70;99.90
55064;DHT22;40963;52.168;21.296;2023-03-04T04:57:09;1.60;99.90
55064;DHT22;40963;52.168;21.296;2023-03-04T04:59:35;1.70;99.90
55064;DHT22;40963;52.168;21.296;2023-03-04T05:02:00;1.70;99.90
55064;DHT22;40963;52.168;21.296;2023-03-04T05:04:26;1.70;99.90
55064;DHT22;40963;52.168;21.296;2023-03-04T05:06:52;1.70;99.90
55064;DHT22;40963;52.168;21.296;2023-03-04T05:09:17;1.70;99.90
55064;DHT22;40963;52.168;21.296;2023-03-04T05:11:45;1.70;99.90
55064;DHT22;40963;52.168;21.296;2023-03-04T05:14:10;1.80;99.90
55064;DHT22;40963;52.168;21.296;2023-03-04T05:16:36;1.80;99.90
55064;DHT22;40963;52.168;21.296;2023-03-04T05:19:02;1.80;99.90
55064;DHT22;40963;52.168;21.296;2023-03-04T05:21:27;1.80;99.90
55064;DHT22;40963;52.168;21.296;2023-03-04T05:23:53;1.80;99.90
55064;DHT22;40963;52.168;21.296;2023-03-04T05:26:19;1.70;99.90
55064;DHT22;40963;52.168;21.296;2023-03-04T05:28:45;1.80;99.90
55064;DHT22;40963;52.168;21.296;2023-03-04T05:31:11;1.80;99.90
55064;DHT22;40963;52.168;21.296;2023-03-04T05:33:37;1.80;99.90
55064;DHT22;40963;52.168;21.296;2023-03-04T05:36:04;1.80;99.90
55064;DHT22;40963;52.168;21.296;2023-03-04T05:38:30;1.80;99.90
55064;DHT22;40963;52.168;21.296;2023-03-04T05:41:06;1.80;99.90
55064;DHT22;40963;52.168;21.296;2023-03-04T05:43:33;1.80;99.90
55064;DHT22;40963;52.168;21.296;2023-03-04T05:46:01;1.80;99.90
55064;DHT22;40963;52.168;21.296;2023-03-04T05:48:27;1.90;99.90
55064;DHT22;40963;52.168;21.296;2023-03-04T05:50:58;1.80;99.90
55064;DHT22;40963;52.168;21.296;2023-03-04T05:53:24;1.90;99.90
55064;DHT22;40963;52.168;21.296;2023-03-04T05:55:50;1.90;99.90
55064;DHT22;40963;52.168;21.296;2023-03-04T05:58:16;1.90;99.90
55064;DHT22;40963;52.168;21.296;2023-03-04T06:00:42;1.90;99.90
55064;DHT22;40963;52.168;21.296;2023-03-04T06:03:19;1.90;99.90
55064;DHT22;40963;52.168;21.296;2023-03-04T06:05:45;1.90;99.90
55064;DHT22;40963;52.168;21.296;2023-03-04T06:08:12;1.90;99.90
55064;DHT22;40963;52.168;21.296;2023-03-04T06:10:39;1.90;99.90
55064;DHT22;40963;52.168;21.296;2023-03-04T06:13:06;1.90;99.90
55064;DHT22;40963;52.168;21.296;2023-03-04T06:15:32;1.90;99.90
55064;DHT22;40963;52.168;21.296;2023-03-04T06:17:58;1.90;99.90
55064;DHT22;40963;52.168;21.296;2023-03-04T06:20:24;1.90;99.90
55064;DHT22;40963;52.168;21.296;2023-03-04T06:22:49;1.90;99.90
55064;DHT22;40963;52.168;21.296;2023-03-04T06:25:15;1.90;99.90
55064;DHT22;40963;52.168;21.296;2023-03-04T06:27:41;1.90;99.90
55064;DHT22;40963;52.168;21.296;2023-03-04T06:30:07;1.90;99.90
55064;DHT22;40963;52.168;21.296;2023-03-04T06:32:33;1.90;99.90
55064;DHT22;40963;52.168;21.296;2023-03-04T06:34:58;1.90;99.90
55064;DHT22;40963;52.168;21.296;2023-03-04T06:37:24;1.90;99.90
55064;DHT22;40963;52.168;21.296;2023-03-04T06:39:50;1.90;99.90
55064;DHT22;40963;52.168;21.296;2023-03-04T06:42:15;1.90;99.90
55064;DHT22;40963;52.168;21.296;2023-03-04T06:44:41;2.00;99.90
55064;DHT22;40963;52.168;21.296;2023-03-04T06:47:07;2.00;99.90
55064;DHT22;40963;52.168;21.296;2023-03-04T06:49:33;2.00;99.90
55064;DHT22;40963;52.168;21.296;2023-03-04T06:51:59;2.00;99.90
55064;DHT22;40963;52.168;21.296;2023-03-04T06:54:24;2.00;99.90
55064;DHT22;40963;52.168;21.296;2023-03-04T06:56:50;2.00;99.90
55064;DHT22;40963;52.168;21.296;2023-03-04T06:59:16;2.00;99.90
55064;DHT22;40963;52.168;21.296;2023-03-04T07:01:41;2.00;99.90
55064;DHT22;40963;52.168;21.296;2023-03-04T07:04:07;2.00;99.90
55064;DHT22;40963;52.168;21.296;2023-03-04T07:06:33;2.00;99.90
55064;DHT22;40963;52.168;21.296;2023-03-04T07:08:59;2.00;99.90
55064;DHT22;40963;52.168;21.296;2023-03-04T07:11:25;2.00;99.90
55064;DHT22;40963;52.168;21.296;2023-03-04T07:13:51;2.10;99.90
55064;DHT22;40963;52.168;21.296;2023-03-04T07:16:19;2.10;99.90
55064;DHT22;40963;52.168;21.296;2023-03-04T07:18:45;2.10;99.90
55064;DHT22;40963;52.168;21.296;2023-03-04T07:21:12;2.10;99.90
55064;DHT22;40963;52.168;21.296;2023-03-04T07:23:38;2.10;99.90
55064;DHT22;40963;52.168;21.296;2023-03-04T07:26:04;2.10;99.90
55064;DHT22;40963;52.168;21.296;2023-03-04T07:28:30;2.10;99.90
55064;DHT22;40963;52.168;21.296;2023-03-04T07:30:56;2.10;99.90
55064;DHT22;40963;52.168;21.296;2023-03-04T07:33:22;2.20;99.90
55064;DHT22;40963;52.168;21.296;2023-03-04T07:35:48;2.20;99.90
55064;DHT22;40963;52.168;21.296;2023-03-04T07:38:13;2.20;99.90
55064;DHT22;40963;52.168;21.296;2023-03-04T07:40:39;2.20;99.90
55064;DHT22;40963;52.168;21.296;2023-03-04T07:43:05;2.20;99.90
55064;DHT22;40963;52.168;21.296;2023-03-04T07:45:30;2.20;99.90
55064;DHT22;40963;52.168;21.296;2023-03-04T07:47:59;2.20;99.90
55064;DHT22;40963;52.168;21.296;2023-03-04T07:50:25;2.20;99.90
55064;DHT22;40963;52.168;21.296;2023-03-04T07:52:51;2.20;99.90
55064;DHT22;40963;52.168;21.296;2023-03-04T07:55:17;2.20;99.90
55064;DHT22;40963;52.168;21.296;2023-03-04T07:57:45;2.20;99.90
55064;DHT22;40963;52.168;21.296;2023-03-04T08:00:13;2.20;99.90
55064;DHT22;40963;52.168;21.296;2023-03-04T08:02:39;2.20;99.90
55064;DHT22;40963;52.168;21.296;2023-03-04T08:05:05;2.20;99.90
55064;DHT22;40963;52.168;21.296;2023-03-04T08:07:31;2.30;99.90
55064;DHT22;40963;52.168;21.296;2023-03-04T08:09:57;2.30;99.90
55064;DHT22;40963;52.168;21.296;2023-03-04T08:12:23;2.30;99.90
55064;DHT22;40963;52.168;21.296;2023-03-04T08:14:50;2.30;99.90
55064;DHT22;40963;52.168;21.296;2023-03-04T08:17:16;2.30;99.90
55064;DHT22;40963;52.168;21.296;2023-03-04T08:19:41;2.30;99.90
55064;DHT22;40963;52.168;21.296;2023-03-04T08:22:07;2.40;99.90
55064;DHT22;40963;52.168;21.296;2023-03-04T08:24:33;2.40;99.90
55064;DHT22;40963;52.168;21.296;2023-03-04T08:26:59;2.40;99.90
55064;DHT22;40963;52.168;21.296;2023-03-04T08:29:24;2.40;99.90
55064;DHT22;40963;52.168;21.296;2023-03-04T08:31:51;2.40;99.90
55064;DHT22;40963;52.168;21.296;2023-03-04T08:34:20;2.40;99.90
55064;DHT22;40963;52.168;21.296;2023-03-04T08:36:46;2.40;99.90
55064;DHT22;40963;52.168;21.296;2023-03-04T08:39:16;2.40;99.90
55064;DHT22;40963;52.168;21.296;2023-03-04T08:41:42;2.40;99.90
55064;DHT22;40963;52.168;21.296;2023-03-04T08:44:08;2.40;99.90
55064;DHT22;40963;52.168;21.296;2023-03-04T08:46:38;2.40;99.90
55064;DHT22;40963;52.168;21.296;2023-03-04T08:49:05;2.40;99.90
55064;DHT22;40963;52.168;21.296;2023-03-04T08:51:31;2.40;99.90
55064;DHT22;40963;52.168;21.296;2023-03-04T08:53:57;2.50;99.90
55064;DHT22;40963;52.168;21.296;2023-03-04T08:56:22;2.50;99.90
55064;DHT22;40963;52.168;21.296;2023-03-04T08:58:48;2.50;99.90
55064;DHT22;40963;52.168;21.296;2023-03-04T09:01:14;2.50;99.90
55064;DHT22;40963;52.168;21.296;2023-03-04T09:03:40;2.50;99.90
55064;DHT22;40963;52.168;21.296;2023-03-04T09:06:07;2.50;99.90
55064;DHT22;40963;52.168;21.296;2023-03-04T09:08:33;2.50;99.90
55064;DHT22;40963;52.168;21.296;2023-03-04T09:10:59;2.50;99.90
55064;DHT22;40963;52.168;21.296;2023-03-04T09:13:28;2.60;99.90
55064;DHT22;40963;52.168;21.296;2023-03-04T09:15:54;2.60;99.90
55064;DHT22;40963;52.168;21.296;2023-03-04T09:18:21;2.60;99.90
55064;DHT22;40963;52.168;21.296;2023-03-04T09:20:47;2.60;99.90
55064;DHT22;40963;52.168;21.296;2023-03-04T09:23:13;2.60;99.90
55064;DHT22;40963;52.168;21.296;2023-03-04T09:25:40;2.70;99.90
55064;DHT22;40963;52.168;21.296;2023-03-04T09:28:06;2.60;99.90
55064;DHT22;40963;52.168;21.296;2023-03-04T09:30:33;2.70;99.90
55064;DHT22;40963;52.168;21.296;2023-03-04T09:32:59;2.70;99.90
55064;DHT22;40963;52.168;21.296;2023-03-04T09:35:25;2.70;99.90
55064;DHT22;40963;52.168;21.296;2023-03-04T09:37:52;2.80;99.90
55064;DHT22;40963;52.168;21.296;2023-03-04T09:40:21;2.80;99.90
55064;DHT22;40963;52.168;21.296;2023-03-04T09:42:54;2.90;99.90
55064;DHT22;40963;52.168;21.296;2023-03-04T09:45:26;2.90;99.90
55064;DHT22;40963;52.168;21.296;2023-03-04T09:47:54;2.90;99.90
55064;DHT22;40963;52.168;21.296;2023-03-04T09:50:21;2.90;99.90
55064;DHT22;40963;52.168;21.296;2023-03-04T09:52:54;2.90;99.90
55064;DHT22;40963;52.168;21.296;2023-03-04T09:55:43;2.90;99.90
55064;DHT22;40963;52.168;21.296;2023-03-04T10:00:53;2.90;99.90
55064;DHT22;40963;52.168;21.296;2023-03-04T10:03:24;2.90;99.90
55064;DHT22;40963;52.168;21.296;2023-03-04T10:08:37;2.90;99.90
55064;DHT22;40963;52.168;21.296;2023-03-04T10:11:12;2.90;99.90
55064;DHT22;40963;52.168;21.296;2023-03-04T10:13:43;2.90;99.90
55064;DHT22;40963;52.168;21.296;2023-03-04T10:16:15;2.90;99.90
55064;DHT22;40963;52.168;21.296;2023-03-04T10:19:44;2.90;99.90
55064;DHT22;40963;52.168;21.296;2023-03-04T10:21:48;2.90;99.90
55064;DHT22;40963;52.168;21.296;2023-03-04T10:24:18;2.90;99.90
55064;DHT22;40963;52.168;21.296;2023-03-04T10:26:46;2.90;99.90
55064;DHT22;40963;52.168;21.296;2023-03-04T10:29:19;2.90;99.90
55064;DHT22;40963;52.168;21.296;2023-03-04T10:31:45;2.90;99.90
55064;DHT22;40963;52.168;21.296;2023-03-04T10:34:12;2.90;99.90
55064;DHT22;40963;52.168;21.296;2023-03-04T10:39:37;2.90;99.90
55064;DHT22;40963;52.168;21.296;2023-03-04T10:42:22;2.90;99.90
55064;DHT22;40963;52.168;21.296;2023-03-04T10:44:57;3.00;99.90
55064;DHT22;40963;52.168;21.296;2023-03-04T10:47:26;3.00;99.90
55064;DHT22;40963;52.168;21.296;2023-03-04T10:49:57;3.00;99.90
55064;DHT22;40963;52.168;21.296;2023-03-04T10:52:37;3.00;99.90
55064;DHT22;40963;52.168;21.296;2023-03-04T10:55:13;3.10;99.90
55064;DHT22;40963;52.168;21.296;2023-03-04T10:57:41;3.10;99.90
55064;DHT22;40963;52.168;21.296;2023-03-04T11:02:44;3.10;99.90
55064;DHT22;40963;52.168;21.296;2023-03-04T11:05:21;3.20;99.90
55064;DHT22;40963;52.168;21.296;2023-03-04T11:07:50;3.20;99.90
55064;DHT22;40963;52.168;21.296;2023-03-04T11:13:07;3.10;99.90
55064;DHT22;40963;52.168;21.296;2023-03-04T11:20:57;3.10;99.90
55064;DHT22;40963;52.168;21.296;2023-03-04T11:26:11;3.10;99.90
55064;DHT22;40963;52.168;21.296;2023-03-04T11:28:53;3.10;99.90
55064;DHT22;40963;52.168;21.296;2023-03-04T11:34:28;3.00;99.90
55064;DHT22;40963;52.168;21.296;2023-03-04T11:37:36;3.10;99.90
55064;DHT22;40963;52.168;21.296;2023-03-04T11:40:10;3.10;99.90
55064;DHT22;40963;52.168;21.296;2023-03-04T11:42:53;3.10;99.90
55064;DHT22;40963;52.168;21.296;2023-03-04T11:48:13;3.10;99.90
55064;DHT22;40963;52.168;21.296;2023-03-04T11:51:00;3.00;99.90
55064;DHT22;40963;52.168;21.296;2023-03-04T11:56:43;3.00;99.90
55064;DHT22;40963;52.168;21.296;2023-03-04T12:02:16;3.10;99.90
55064;DHT22;40963;52.168;21.296;2023-03-04T12:05:03;3.10;99.90
55064;DHT22;40963;52.168;21.296;2023-03-04T12:26:40;3.20;99.90
55064;DHT22;40963;52.168;21.296;2023-03-04T12:34:54;3.30;99.90
55064;DHT22;40963;52.168;21.296;2023-03-04T12:43:06;3.40;99.90
55064;DHT22;40963;52.168;21.296;2023-03-04T12:45:45;3.40;99.90
55064;DHT22;40963;52.168;21.296;2023-03-04T12:51:46;3.50;99.90
55064;DHT22;40963;52.168;21.296;2023-03-04T12:57:27;3.50;99.90
55064;DHT22;40963;52.168;21.296;2023-03-04T13:06:12;3.70;99.90
55064;DHT22;40963;52.168;21.296;2023-03-04T13:16:35;3.90;99.90
55064;DHT22;40963;52.168;21.296;2023-03-04T13:19:42;3.90;99.90
55064;DHT22;40963;52.168;21.296;2023-03-04T13:28:17;4.00;99.90
55064;DHT22;40963;52.168;21.296;2023-03-04T13:51:34;4.40;99.90
55064;DHT22;40963;52.168;21.296;2023-03-04T13:54:25;4.40;99.90
55064;DHT22;40963;52.168;21.296;2023-03-04T13:57:21;4.40;99.90
55064;DHT22;40963;52.168;21.296;2023-03-04T13:59:54;4.30;99.90
55064;DHT22;40963;52.168;21.296;2023-03-04T14:02:22;4.00;99.90
55064;DHT22;40963;52.168;21.296;2023-03-04T14:07:27;3.30;99.90
55064;DHT22;40963;52.168;21.296;2023-03-04T14:12:19;2.80;99.90
55064;DHT22;40963;52.168;21.296;2023-03-04T14:14:51;2.60;99.90
55064;DHT22;40963;52.168;21.296;2023-03-04T14:17:24;2.50;99.90
55064;DHT22;40963;52.168;21.296;2023-03-04T14:19:51;2.40;99.90
55064;DHT22;40963;52.168;21.296;2023-03-04T14:22:21;2.30;99.90
55064;DHT22;40963;52.168;21.296;2023-03-04T14:25:03;2.20;99.90
55064;DHT22;40963;52.168;21.296;2023-03-04T14:27:31;2.20;99.90
55064;DHT22;40963;52.168;21.296;2023-03-04T14:30:06;2.20;99.90
55064;DHT22;40963;52.168;21.296;2023-03-04T14:32:32;2.20;99.90
55064;DHT22;40963;52.168;21.296;2023-03-04T14:35:03;2.30;99.90
55064;DHT22;40963;52.168;21.296;2023-03-04T14:37:47;2.30;99.90
55064;DHT22;40963;52.168;21.296;2023-03-04T14:40:23;2.40;99.90
55064;DHT22;40963;52.168;21.296;2023-03-04T14:42:58;2.50;99.90
55064;DHT22;40963;52.168;21.296;2023-03-04T14:45:27;2.60;99.90
55064;DHT22;40963;52.168;21.296;2023-03-04T14:47:57;2.70;99.90
55064;DHT22;40963;52.168;21.296;2023-03-04T14:50:24;2.80;99.90
55064;DHT22;40963;52.168;21.296;2023-03-04T14:55:31;2.90;99.90
55064;DHT22;40963;52.168;21.296;2023-03-04T14:58:09;3.00;99.90
55064;DHT22;40963;52.168;21.296;2023-03-04T15:00:37;3.10;99.90
55064;DHT22;40963;52.168;21.296;2023-03-04T15:03:24;3.20;99.90
55064;DHT22;40963;52.168;21.296;2023-03-04T15:05:50;3.20;99.90
55064;DHT22;40963;52.168;21.296;2023-03-04T15:08:37;3.30;99.90
55064;DHT22;40963;52.168;21.296;2023-03-04T15:11:05;3.40;99.90
55064;DHT22;40963;52.168;21.296;2023-03-04T15:16:02;3.50;99.90
55064;DHT22;40963;52.168;21.296;2023-03-04T15:18:28;3.50;99.90
55064;DHT22;40963;52.168;21.296;2023-03-04T15:20:55;3.60;99.90
55064;DHT22;40963;52.168;21.296;2023-03-04T15:23:21;3.60;99.90
55064;DHT22;40963;52.168;21.296;2023-03-04T15:25:53;3.60;99.90
55064;DHT22;40963;52.168;21.296;2023-03-04T15:28:21;3.60;99.60
55064;DHT22;40963;52.168;21.296;2023-03-04T15:30:46;3.60;99.20
55064;DHT22;40963;52.168;21.296;2023-03-04T15:33:12;3.60;98.10
55064;DHT22;40963;52.168;21.296;2023-03-04T15:35:38;3.60;97.40
55064;DHT22;40963;52.168;21.296;2023-03-04T15:38:06;3.50;96.40
55064;DHT22;40963;52.168;21.296;2023-03-04T15:40:35;3.50;95.80
55064;DHT22;40963;52.168;21.296;2023-03-04T15:43:05;3.50;93.70
55064;DHT22;40963;52.168;21.296;2023-03-04T15:45:36;3.40;90.30
55064;DHT22;40963;52.168;21.296;2023-03-04T15:48:07;3.30;82.70
55064;DHT22;40963;52.168;21.296;2023-03-04T15:50:35;3.10;79.50
55064;DHT22;40963;52.168;21.296;2023-03-04T15:53:04;2.90;79.70
55064;DHT22;40963;52.168;21.296;2023-03-04T15:55:31;2.70;82.60
55064;DHT22;40963;52.168;21.296;2023-03-04T15:57:58;2.60;84.30
55064;DHT22;40963;52.168;21.296;2023-03-04T16:00:25;2.50;86.30
55064;DHT22;40963;52.168;21.296;2023-03-04T16:02:50;2.40;85.90
55064;DHT22;40963;52.168;21.296;2023-03-04T16:05:16;2.30;84.70
55064;DHT22;40963;52.168;21.296;2023-03-04T16:07:45;2.20;85.20
55064;DHT22;40963;52.168;21.296;2023-03-04T16:10:25;2.10;85.10
55064;DHT22;40963;52.168;21.296;2023-03-04T16:12:52;2.10;87.80
55064;DHT22;40963;52.168;21.296;2023-03-04T16:15:20;2.00;87.70
55064;DHT22;40963;52.168;21.296;2023-03-04T16:17:47;2.00;88.40
55064;DHT22;40963;52.168;21.296;2023-03-04T16:20:15;2.00;87.90
55064;DHT22;40963;52.168;21.296;2023-03-04T16:22:42;1.90;86.30
55064;DHT22;40963;52.168;21.296;2023-03-04T16:25:11;1.80;86.00
55064;DHT22;40963;52.168;21.296;2023-03-04T16:27:39;1.80;85.50
55064;DHT22;40963;52.168;21.296;2023-03-04T16:30:16;1.80;80.20
55064;DHT22;40963;52.168;21.296;2023-03-04T16:32:44;1.80;80.10
55064;DHT22;40963;52.168;21.296;2023-03-04T16:35:10;1.70;78.70
55064;DHT22;40963;52.168;21.296;2023-03-04T16:37:37;1.70;76.30
55064;DHT22;40963;52.168;21.296;2023-03-04T16:40:03;1.60;75.90
55064;DHT22;40963;52.168;21.296;2023-03-04T16:42:30;1.60;76.80
55064;DHT22;40963;52.168;21.296;2023-03-04T16:44:55;1.60;77.10
55064;DHT22;40963;52.168;21.296;2023-03-04T16:47:21;1.60;77.60
55064;DHT22;40963;52.168;21.296;2023-03-04T16:49:47;1.50;76.60
55064;DHT22;40963;52.168;21.296;2023-03-04T16:52:25;1.50;76.20
55064;DHT22;40963;52.168;21.296;2023-03-04T16:54:52;1.40;70.10
55064;DHT22;40963;52.168;21.296;2023-03-04T16:57:18;1.30;67.30
55064;DHT22;40963;52.168;21.296;2023-03-04T16:59:43;1.20;66.00
55064;DHT22;40963;52.168;21.296;2023-03-04T17:02:18;1.20;64.60
55064;DHT22;40963;52.168;21.296;2023-03-04T17:04:46;1.10;63.90
55064;DHT22;40963;52.168;21.296;2023-03-04T17:07:12;1.10;62.80
55064;DHT22;40963;52.168;21.296;2023-03-04T17:09:38;1.10;62.00
55064;DHT22;40963;52.168;21.296;2023-03-04T17:12:06;1.10;61.90
55064;DHT22;40963;52.168;21.296;2023-03-04T17:14:32;1.10;62.30
55064;DHT22;40963;52.168;21.296;2023-03-04T17:16:58;1.00;62.30
55064;DHT22;40963;52.168;21.296;2023-03-04T17:19:24;1.00;60.40
55064;DHT22;40963;52.168;21.296;2023-03-04T17:21:50;1.00;59.90
55064;DHT22;40963;52.168;21.296;2023-03-04T17:24:15;1.00;59.20
55064;DHT22;40963;52.168;21.296;2023-03-04T17:26:41;1.00;58.00
55064;DHT22;40963;52.168;21.296;2023-03-04T17:29:08;1.00;58.00
55064;DHT22;40963;52.168;21.296;2023-03-04T17:31:34;1.00;58.50
55064;DHT22;40963;52.168;21.296;2023-03-04T17:34:00;1.00;59.40
55064;DHT22;40963;52.168;21.296;2023-03-04T17:36:26;0.90;58.30
55064;DHT22;40963;52.168;21.296;2023-03-04T17:38:52;0.90;58.40